This is the latest recevied weather packets stored in our database for station/object KB4MOX. If no packets are shown the sender has not sent any weather packets the latest 10 day(s).
| Time | Temp. | Humidity | Pressure | Rain* | Wind** | Luminosity | Snow |
|---|---|---|---|---|---|---|---|
| 1788631448 | 34.44° C | 46% | 1012.7 hPa | 0 mm | - | 787 W/m² | - |
| 1788631123 | 34.44° C | 48% | 1012.9 hPa | 0 mm | - | 108 W/m² | - |
| 1788630817 | 35.56° C | 45% | 1013 hPa | 0 mm | - | 88 W/m² | - |
| 1788630513 | 36.11° C | 45% | 1013.1 hPa | 0 mm | - | 776 W/m² | - |
| 1788630209 | 35.56° C | 46% | 1013 hPa | 0 mm | - | 775 W/m² | - |
| 1788629904 | 35.56° C | 46% | 1013.1 hPa | 0 mm | - | 778 W/m² | - |
| 1788629600 | 35.56° C | 47% | 1013.3 hPa | 0 mm | - | 775 W/m² | - |
| 1788629300 | 35° C | 47% | 1013.4 hPa | 0 mm | - | 775 W/m² | - |
| 1788628998 | 35.56° C | 48% | 1013.6 hPa | 0 mm | - | 774 W/m² | - |
| 1788628694 | 35° C | 50% | 1013.6 hPa | 0 mm | - | 778 W/m² | - |
| 1788628391 | 35.56° C | 47% | 1013.7 hPa | 0 mm | - | 772 W/m² | - |
| 1788628087 | 35° C | 50% | 1013.7 hPa | 0 mm | - | 772 W/m² | - |
| 1788627803 | 35° C | 50% | 1013.8 hPa | 0 mm | - | 768 W/m² | - |
| 1788627481 | 35° C | 51% | 1013.8 hPa | 0 mm | - | 766 W/m² | - |
| 1788627178 | 35° C | 51% | 1013.9 hPa | 0 mm | - | 763 W/m² | - |
| 1788626872 | 34.44° C | 51% | 1014 hPa | 0 mm | - | 769 W/m² | - |
| 1788626572 | 34.44° C | 54% | 1014.1 hPa | 0 mm | - | 786 W/m² | - |
| 1788626268 | 34.44° C | 54% | 1014 hPa | 0 mm | - | 774 W/m² | - |
| 1788625973 | 33.33° C | 56% | 1014.1 hPa | 0 mm | - | 765 W/m² | - |
| 1788625660 | 33.33° C | 55% | 1014.3 hPa | 0 mm | - | 761 W/m² | - |
| 1788625359 | 33.89° C | 57% | 1014.4 hPa | 0 mm | - | 753 W/m² | - |
| 1788625054 | 33.89° C | 57% | 1014.3 hPa | 0 mm | - | 755 W/m² | - |
| 1788624752 | 33.33° C | 60% | 1014.4 hPa | 0 mm | - | 741 W/m² | - |
| 1788624452 | 32.78° C | 61% | 1014.5 hPa | 0 mm | - | 724 W/m² | - |
| 1788624151 | 32.78° C | 63% | 1014.5 hPa | 0 mm | - | 718 W/m² | - |
* Rain latest hour (hover to see other rain measurements)
** Current wind speed in m/s (hover to see current wind gust speed)